sensor_id;sensor_type;location;lat;lon;timestamp;temperature;humidity
516;DHT22;244;48.508;9.052;2022-11-15T00:00:31;6.80;27.00
516;DHT22;244;48.508;9.052;2022-11-15T00:02:59;6.80;26.80
516;DHT22;244;48.508;9.052;2022-11-15T00:05:26;6.70;26.70
516;DHT22;244;48.508;9.052;2022-11-15T00:07:53;6.70;26.50
516;DHT22;244;48.508;9.052;2022-11-15T00:10:20;6.60;26.50
516;DHT22;244;48.508;9.052;2022-11-15T00:12:47;6.60;26.40
516;DHT22;244;48.508;9.052;2022-11-15T00:15:14;6.50;26.40
516;DHT22;244;48.508;9.052;2022-11-15T00:17:41;6.50;26.50
516;DHT22;244;48.508;9.052;2022-11-15T00:20:10;6.50;26.60
516;DHT22;244;48.508;9.052;2022-11-15T00:22:37;6.50;26.70
516;DHT22;244;48.508;9.052;2022-11-15T00:25:05;6.40;26.50
516;DHT22;244;48.508;9.052;2022-11-15T00:27:32;6.40;26.50
516;DHT22;244;48.508;9.052;2022-11-15T00:29:59;6.40;26.60
516;DHT22;244;48.508;9.052;2022-11-15T00:32:26;6.30;26.50
516;DHT22;244;48.508;9.052;2022-11-15T00:34:52;6.30;26.60
516;DHT22;244;48.508;9.052;2022-11-15T00:37:21;6.30;26.60
516;DHT22;244;48.508;9.052;2022-11-15T00:39:48;6.30;26.60
516;DHT22;244;48.508;9.052;2022-11-15T00:42:15;6.20;26.40
516;DHT22;244;48.508;9.052;2022-11-15T00:44:41;6.20;26.20
516;DHT22;244;48.508;9.052;2022-11-15T00:47:08;6.20;26.10
516;DHT22;244;48.508;9.052;2022-11-15T00:49:35;6.20;26.10
516;DHT22;244;48.508;9.052;2022-11-15T00:52:02;6.10;26.00
516;DHT22;244;48.508;9.052;2022-11-15T00:54:31;6.10;26.30
516;DHT22;244;48.508;9.052;2022-11-15T00:56:58;6.10;26.40
516;DHT22;244;48.508;9.052;2022-11-15T00:59:25;6.10;26.50
516;DHT22;244;48.508;9.052;2022-11-15T01:01:51;6.10;26.70
516;DHT22;244;48.508;9.052;2022-11-15T01:04:19;6.10;26.80
516;DHT22;244;48.508;9.052;2022-11-15T01:06:46;6.20;26.90
516;DHT22;244;48.508;9.052;2022-11-15T01:09:13;6.20;27.70
516;DHT22;244;48.508;9.052;2022-11-15T01:11:41;6.30;27.10
516;DHT22;244;48.508;9.052;2022-11-15T01:14:08;6.30;27.00
516;DHT22;244;48.508;9.052;2022-11-15T01:16:35;6.40;27.20
516;DHT22;244;48.508;9.052;2022-11-15T01:19:02;6.40;27.20
516;DHT22;244;48.508;9.052;2022-11-15T01:21:29;6.40;27.20
516;DHT22;244;48.508;9.052;2022-11-15T01:23:57;6.40;27.20
516;DHT22;244;48.508;9.052;2022-11-15T01:26:24;6.40;27.20
516;DHT22;244;48.508;9.052;2022-11-15T01:28:52;6.40;27.10
516;DHT22;244;48.508;9.052;2022-11-15T01:31:20;6.40;27.00
516;DHT22;244;48.508;9.052;2022-11-15T01:33:48;6.40;26.90
516;DHT22;244;48.508;9.052;2022-11-15T01:36:16;6.40;26.90
516;DHT22;244;48.508;9.052;2022-11-15T01:38:43;6.40;26.80
516;DHT22;244;48.508;9.052;2022-11-15T01:41:18;6.40;26.70
516;DHT22;244;48.508;9.052;2022-11-15T01:43:48;6.30;26.60
516;DHT22;244;48.508;9.052;2022-11-15T01:46:24;6.30;26.50
516;DHT22;244;48.508;9.052;2022-11-15T01:48:52;6.30;26.70
516;DHT22;244;48.508;9.052;2022-11-15T01:51:23;6.40;26.80
516;DHT22;244;48.508;9.052;2022-11-15T01:53:56;6.40;26.90
516;DHT22;244;48.508;9.052;2022-11-15T01:56:27;6.40;27.00
516;DHT22;244;48.508;9.052;2022-11-15T01:58:57;6.50;27.80
516;DHT22;244;48.508;9.052;2022-11-15T02:01:28;6.50;27.30
516;DHT22;244;48.508;9.052;2022-11-15T02:03:59;6.50;27.30
516;DHT22;244;48.508;9.052;2022-11-15T02:06:27;6.50;27.40
516;DHT22;244;48.508;9.052;2022-11-15T02:08:55;6.50;27.40
516;DHT22;244;48.508;9.052;2022-11-15T02:11:23;6.50;27.30
516;DHT22;244;48.508;9.052;2022-11-15T02:13:50;6.50;27.10
516;DHT22;244;48.508;9.052;2022-11-15T02:16:27;6.40;26.90
516;DHT22;244;48.508;9.052;2022-11-15T02:19:02;6.40;26.90
516;DHT22;244;48.508;9.052;2022-11-15T02:21:39;6.40;26.90
516;DHT22;244;48.508;9.052;2022-11-15T02:24:39;6.30;26.80
516;DHT22;244;48.508;9.052;2022-11-15T02:27:46;6.30;26.70
516;DHT22;244;48.508;9.052;2022-11-15T02:30:29;6.30;26.60
516;DHT22;244;48.508;9.052;2022-11-15T02:33:03;6.20;26.50
516;DHT22;244;48.508;9.052;2022-11-15T02:35:44;6.10;26.30
516;DHT22;244;48.508;9.052;2022-11-15T02:38:18;6.10;26.30
516;DHT22;244;48.508;9.052;2022-11-15T02:40:53;6.00;26.40
516;DHT22;244;48.508;9.052;2022-11-15T02:43:26;6.00;26.40
516;DHT22;244;48.508;9.052;2022-11-15T02:46:13;6.00;26.40
516;DHT22;244;48.508;9.052;2022-11-15T02:48:42;5.90;26.40
516;DHT22;244;48.508;9.052;2022-11-15T02:51:10;5.90;26.30
516;DHT22;244;48.508;9.052;2022-11-15T02:53:38;5.90;26.40
516;DHT22;244;48.508;9.052;2022-11-15T02:56:07;5.90;26.50
516;DHT22;244;48.508;9.052;2022-11-15T02:58:56;5.90;26.50
516;DHT22;244;48.508;9.052;2022-11-15T03:01:49;6.00;26.80
516;DHT22;244;48.508;9.052;2022-11-15T03:04:29;6.00;26.90
516;DHT22;244;48.508;9.052;2022-11-15T03:07:04;6.00;27.00
516;DHT22;244;48.508;9.052;2022-11-15T03:09:34;6.10;27.10
516;DHT22;244;48.508;9.052;2022-11-15T03:12:07;6.10;26.90
516;DHT22;244;48.508;9.052;2022-11-15T03:14:36;6.20;27.00
516;DHT22;244;48.508;9.052;2022-11-15T03:17:12;6.20;27.00
516;DHT22;244;48.508;9.052;2022-11-15T03:19:44;6.20;27.00
516;DHT22;244;48.508;9.052;2022-11-15T03:22:13;6.30;27.20
516;DHT22;244;48.508;9.052;2022-11-15T03:24:42;6.30;27.30
516;DHT22;244;48.508;9.052;2022-11-15T03:27:13;6.30;27.40
516;DHT22;244;48.508;9.052;2022-11-15T03:29:45;6.40;27.40
516;DHT22;244;48.508;9.052;2022-11-15T03:32:18;6.40;27.40
516;DHT22;244;48.508;9.052;2022-11-15T03:34:49;6.40;27.30
516;DHT22;244;48.508;9.052;2022-11-15T03:37:21;6.50;27.30
516;DHT22;244;48.508;9.052;2022-11-15T03:39:49;6.50;27.80
516;DHT22;244;48.508;9.052;2022-11-15T03:42:21;6.50;27.80
516;DHT22;244;48.508;9.052;2022-11-15T03:44:54;6.50;27.70
516;DHT22;244;48.508;9.052;2022-11-15T03:47:29;6.50;27.00
516;DHT22;244;48.508;9.052;2022-11-15T03:49:59;6.40;27.00
516;DHT22;244;48.508;9.052;2022-11-15T03:52:31;6.40;26.90
516;DHT22;244;48.508;9.052;2022-11-15T03:55:02;6.30;26.70
516;DHT22;244;48.508;9.052;2022-11-15T03:57:29;6.30;26.50
516;DHT22;244;48.508;9.052;2022-11-15T03:59:56;6.30;26.70
516;DHT22;244;48.508;9.052;2022-11-15T04:02:25;6.30;26.70
516;DHT22;244;48.508;9.052;2022-11-15T04:04:52;6.30;26.80
516;DHT22;244;48.508;9.052;2022-11-15T04:07:36;6.30;27.10
516;DHT22;244;48.508;9.052;2022-11-15T04:10:05;6.40;27.20
516;DHT22;244;48.508;9.052;2022-11-15T04:12:33;6.40;27.20
516;DHT22;244;48.508;9.052;2022-11-15T04:15:01;6.40;27.20
516;DHT22;244;48.508;9.052;2022-11-15T04:17:48;6.50;27.30
516;DHT22;244;48.508;9.052;2022-11-15T04:20:17;6.50;27.20
516;DHT22;244;48.508;9.052;2022-11-15T04:23:08;6.50;27.20
516;DHT22;244;48.508;9.052;2022-11-15T04:25:54;6.50;27.20
516;DHT22;244;48.508;9.052;2022-11-15T04:28:27;6.60;27.20
516;DHT22;244;48.508;9.052;2022-11-15T04:30:55;6.60;27.20
516;DHT22;244;48.508;9.052;2022-11-15T04:33:23;6.60;27.20
516;DHT22;244;48.508;9.052;2022-11-15T04:35:50;6.60;27.20
516;DHT22;244;48.508;9.052;2022-11-15T04:38:31;6.60;27.30
516;DHT22;244;48.508;9.052;2022-11-15T04:40:58;6.70;27.40
516;DHT22;244;48.508;9.052;2022-11-15T04:43:25;6.70;27.40
516;DHT22;244;48.508;9.052;2022-11-15T04:45:52;6.70;27.30
516;DHT22;244;48.508;9.052;2022-11-15T04:48:19;6.70;27.20
516;DHT22;244;48.508;9.052;2022-11-15T04:50:49;6.70;27.10
516;DHT22;244;48.508;9.052;2022-11-15T04:53:16;6.60;27.00
516;DHT22;244;48.508;9.052;2022-11-15T04:55:44;6.60;27.10
516;DHT22;244;48.508;9.052;2022-11-15T04:58:11;6.60;27.20
516;DHT22;244;48.508;9.052;2022-11-15T05:00:38;6.60;27.20
516;DHT22;244;48.508;9.052;2022-11-15T05:03:05;6.60;27.20
516;DHT22;244;48.508;9.052;2022-11-15T05:05:51;6.60;27.20
516;DHT22;244;48.508;9.052;2022-11-15T05:08:18;6.60;27.20
516;DHT22;244;48.508;9.052;2022-11-15T05:10:45;6.60;27.20
516;DHT22;244;48.508;9.052;2022-11-15T05:13:11;6.60;27.20
516;DHT22;244;48.508;9.052;2022-11-15T05:15:38;6.70;27.10
516;DHT22;244;48.508;9.052;2022-11-15T05:18:05;6.70;27.10
516;DHT22;244;48.508;9.052;2022-11-15T05:20:33;6.70;27.20
516;DHT22;244;48.508;9.052;2022-11-15T05:23:01;6.70;27.20
516;DHT22;244;48.508;9.052;2022-11-15T05:25:28;6.60;27.00
516;DHT22;244;48.508;9.052;2022-11-15T05:27:55;6.60;27.00
516;DHT22;244;48.508;9.052;2022-11-15T05:30:22;6.50;26.90
516;DHT22;244;48.508;9.052;2022-11-15T05:32:49;6.50;26.90
516;DHT22;244;48.508;9.052;2022-11-15T05:35:21;6.50;27.00
516;DHT22;244;48.508;9.052;2022-11-15T05:37:52;6.50;27.70
516;DHT22;244;48.508;9.052;2022-11-15T05:40:21;6.50;27.10
516;DHT22;244;48.508;9.052;2022-11-15T05:42:48;6.50;27.10
516;DHT22;244;48.508;9.052;2022-11-15T05:45:15;6.50;27.20
516;DHT22;244;48.508;9.052;2022-11-15T05:47:43;6.50;27.30
516;DHT22;244;48.508;9.052;2022-11-15T05:50:12;6.50;27.90
516;DHT22;244;48.508;9.052;2022-11-15T05:52:40;6.50;27.40
516;DHT22;244;48.508;9.052;2022-11-15T05:55:07;6.50;27.40
516;DHT22;244;48.508;9.052;2022-11-15T05:57:36;6.40;27.20
516;DHT22;244;48.508;9.052;2022-11-15T06:00:05;6.40;27.20
516;DHT22;244;48.508;9.052;2022-11-15T06:02:32;6.40;27.10
516;DHT22;244;48.508;9.052;2022-11-15T06:04:59;6.40;27.20
516;DHT22;244;48.508;9.052;2022-11-15T06:07:26;6.40;27.10
516;DHT22;244;48.508;9.052;2022-11-15T06:09:53;6.30;27.10
516;DHT22;244;48.508;9.052;2022-11-15T06:12:19;6.30;26.90
516;DHT22;244;48.508;9.052;2022-11-15T06:14:48;6.30;26.90
516;DHT22;244;48.508;9.052;2022-11-15T06:17:15;6.30;26.80
516;DHT22;244;48.508;9.052;2022-11-15T06:19:41;6.30;26.80
516;DHT22;244;48.508;9.052;2022-11-15T06:22:08;6.30;26.80
516;DHT22;244;48.508;9.052;2022-11-15T06:24:36;6.30;26.90
516;DHT22;244;48.508;9.052;2022-11-15T06:27:03;6.30;26.90
516;DHT22;244;48.508;9.052;2022-11-15T06:29:29;6.30;27.00
516;DHT22;244;48.508;9.052;2022-11-15T06:31:58;6.40;27.20
516;DHT22;244;48.508;9.052;2022-11-15T06:34:25;6.40;27.30
516;DHT22;244;48.508;9.052;2022-11-15T06:36:52;6.50;27.50
516;DHT22;244;48.508;9.052;2022-11-15T06:39:18;6.50;27.50
516;DHT22;244;48.508;9.052;2022-11-15T06:41:45;6.50;27.50
516;DHT22;244;48.508;9.052;2022-11-15T06:44:12;6.50;27.60
516;DHT22;244;48.508;9.052;2022-11-15T06:46:39;6.60;28.30
516;DHT22;244;48.508;9.052;2022-11-15T06:49:07;6.60;27.80
516;DHT22;244;48.508;9.052;2022-11-15T06:51:34;6.70;28.00
516;DHT22;244;48.508;9.052;2022-11-15T06:54:01;6.80;28.10
516;DHT22;244;48.508;9.052;2022-11-15T06:56:28;6.90;28.10
516;DHT22;244;48.508;9.052;2022-11-15T06:58:55;6.90;28.00
516;DHT22;244;48.508;9.052;2022-11-15T07:01:23;7.00;28.10
516;DHT22;244;48.508;9.052;2022-11-15T07:03:50;7.10;28.10
516;DHT22;244;48.508;9.052;2022-11-15T07:06:18;7.10;28.00
516;DHT22;244;48.508;9.052;2022-11-15T07:08:45;7.20;28.10
516;DHT22;244;48.508;9.052;2022-11-15T07:11:12;7.20;28.20
516;DHT22;244;48.508;9.052;2022-11-15T07:13:40;7.30;28.30
516;DHT22;244;48.508;9.052;2022-11-15T07:16:08;7.40;28.40
516;DHT22;244;48.508;9.052;2022-11-15T07:18:37;7.40;28.40
516;DHT22;244;48.508;9.052;2022-11-15T07:21:05;7.50;28.30
516;DHT22;244;48.508;9.052;2022-11-15T07:23:36;7.50;28.30
516;DHT22;244;48.508;9.052;2022-11-15T07:26:04;7.60;28.30
516;DHT22;244;48.508;9.052;2022-11-15T07:28:31;7.70;28.30
516;DHT22;244;48.508;9.052;2022-11-15T07:30:58;7.70;28.30
516;DHT22;244;48.508;9.052;2022-11-15T07:33:28;7.80;28.40
516;DHT22;244;48.508;9.052;2022-11-15T07:35:58;7.80;28.50
516;DHT22;244;48.508;9.052;2022-11-15T07:38:27;7.90;28.60
516;DHT22;244;48.508;9.052;2022-11-15T07:40:58;8.00;28.70
516;DHT22;244;48.508;9.052;2022-11-15T07:43:25;8.10;28.90
516;DHT22;244;48.508;9.052;2022-11-15T07:45:53;8.20;29.00
516;DHT22;244;48.508;9.052;2022-11-15T07:48:21;8.30;29.00
516;DHT22;244;48.508;9.052;2022-11-15T07:50:47;8.40;29.00
516;DHT22;244;48.508;9.052;2022-11-15T07:53:15;8.40;28.80
516;DHT22;244;48.508;9.052;2022-11-15T07:55:41;8.50;28.80
516;DHT22;244;48.508;9.052;2022-11-15T07:58:11;8.50;28.60
516;DHT22;244;48.508;9.052;2022-11-15T08:00:38;8.50;28.60
516;DHT22;244;48.508;9.052;2022-11-15T08:03:06;8.50;28.60
516;DHT22;244;48.508;9.052;2022-11-15T08:05:34;8.50;28.50
516;DHT22;244;48.508;9.052;2022-11-15T08:08:01;8.50;28.40
516;DHT22;244;48.508;9.052;2022-11-15T08:10:29;8.50;28.40
516;DHT22;244;48.508;9.052;2022-11-15T08:12:57;8.60;28.40
516;DHT22;244;48.508;9.052;2022-11-15T08:15:27;8.60;28.40
516;DHT22;244;48.508;9.052;2022-11-15T08:17:55;8.60;28.40
516;DHT22;244;48.508;9.052;2022-11-15T08:20:23;8.60;28.40
516;DHT22;244;48.508;9.052;2022-11-15T08:22:50;8.60;29.00
516;DHT22;244;48.508;9.052;2022-11-15T08:25:18;8.60;28.50
516;DHT22;244;48.508;9.052;2022-11-15T08:27:45;8.70;28.60
516;DHT22;244;48.508;9.052;2022-11-15T08:30:12;8.70;29.30
516;DHT22;244;48.508;9.052;2022-11-15T08:32:43;8.70;28.70
516;DHT22;244;48.508;9.052;2022-11-15T08:35:10;8.70;28.80
516;DHT22;244;48.508;9.052;2022-11-15T08:37:37;8.70;28.80
516;DHT22;244;48.508;9.052;2022-11-15T08:40:06;8.80;28.90
516;DHT22;244;48.508;9.052;2022-11-15T08:42:33;8.90;28.90
516;DHT22;244;48.508;9.052;2022-11-15T08:45:00;9.00;29.60
516;DHT22;244;48.508;9.052;2022-11-15T08:47:27;9.00;29.00
516;DHT22;244;48.508;9.052;2022-11-15T08:49:55;9.10;29.00
516;DHT22;244;48.508;9.052;2022-11-15T08:52:22;9.20;29.10
516;DHT22;244;48.508;9.052;2022-11-15T08:54:49;9.30;29.20
516;DHT22;244;48.508;9.052;2022-11-15T08:57:16;9.40;29.20
516;DHT22;244;48.508;9.052;2022-11-15T08:59:43;9.50;29.20
516;DHT22;244;48.508;9.052;2022-11-15T09:02:12;9.70;29.20
516;DHT22;244;48.508;9.052;2022-11-15T09:04:40;9.80;29.10
516;DHT22;244;48.508;9.052;2022-11-15T09:07:10;9.90;29.40
516;DHT22;244;48.508;9.052;2022-11-15T09:09:37;10.10;28.70
516;DHT22;244;48.508;9.052;2022-11-15T09:12:05;10.10;28.50
516;DHT22;244;48.508;9.052;2022-11-15T09:14:33;10.20;28.40
516;DHT22;244;48.508;9.052;2022-11-15T09:17:00;10.20;28.30
516;DHT22;244;48.508;9.052;2022-11-15T09:19:26;10.20;28.70
516;DHT22;244;48.508;9.052;2022-11-15T09:21:54;10.30;28.10
516;DHT22;244;48.508;9.052;2022-11-15T09:24:22;10.30;28.00
516;DHT22;244;48.508;9.052;2022-11-15T09:26:50;10.40;28.00
516;DHT22;244;48.508;9.052;2022-11-15T09:29:17;10.40;28.00
516;DHT22;244;48.508;9.052;2022-11-15T09:31:44;10.40;28.00
516;DHT22;244;48.508;9.052;2022-11-15T09:34:12;10.50;28.10
516;DHT22;244;48.508;9.052;2022-11-15T09:36:38;10.60;28.10
516;DHT22;244;48.508;9.052;2022-11-15T09:39:05;10.70;28.20
516;DHT22;244;48.508;9.052;2022-11-15T09:44:56;10.90;28.10
516;DHT22;244;48.508;9.052;2022-11-15T09:47:38;11.10;28.00
516;DHT22;244;48.508;9.052;2022-11-15T09:50:11;11.20;27.80
516;DHT22;244;48.508;9.052;2022-11-15T09:52:42;11.30;27.90
516;DHT22;244;48.508;9.052;2022-11-15T09:55:10;11.50;27.90
516;DHT22;244;48.508;9.052;2022-11-15T09:57:47;11.70;27.70
516;DHT22;244;48.508;9.052;2022-11-15T10:00:18;11.80;27.60
516;DHT22;244;48.508;9.052;2022-11-15T10:03:03;12.00;27.50
516;DHT22;244;48.508;9.052;2022-11-15T10:05:37;12.10;27.10
516;DHT22;244;48.508;9.052;2022-11-15T10:08:22;12.20;26.90
516;DHT22;244;48.508;9.052;2022-11-15T10:11:00;12.30;26.70
516;DHT22;244;48.508;9.052;2022-11-15T10:13:32;12.30;26.60
516;DHT22;244;48.508;9.052;2022-11-15T10:16:05;12.40;26.60
516;DHT22;244;48.508;9.052;2022-11-15T10:18:43;12.40;26.60
516;DHT22;244;48.508;9.052;2022-11-15T10:21:17;12.60;26.60
516;DHT22;244;48.508;9.052;2022-11-15T10:23:46;12.70;26.50
516;DHT22;244;48.508;9.052;2022-11-15T10:26:16;12.80;26.50
516;DHT22;244;48.508;9.052;2022-11-15T10:28:45;12.90;26.40
516;DHT22;244;48.508;9.052;2022-11-15T10:31:23;13.00;26.20
516;DHT22;244;48.508;9.052;2022-11-15T10:33:51;13.10;26.10
516;DHT22;244;48.508;9.052;2022-11-15T10:36:23;13.20;26.60
516;DHT22;244;48.508;9.052;2022-11-15T10:38:53;13.30;25.80
516;DHT22;244;48.508;9.052;2022-11-15T10:41:22;13.40;25.80
516;DHT22;244;48.508;9.052;2022-11-15T10:47:06;13.50;25.90
516;DHT22;244;48.508;9.052;2022-11-15T10:50:00;13.50;25.90
516;DHT22;244;48.508;9.052;2022-11-15T10:52:29;13.50;25.70
516;DHT22;244;48.508;9.052;2022-11-15T10:55:01;13.50;25.40
516;DHT22;244;48.508;9.052;2022-11-15T10:57:31;13.60;25.30
516;DHT22;244;48.508;9.052;2022-11-15T11:00:03;13.60;25.30
516;DHT22;244;48.508;9.052;2022-11-15T11:02:33;13.60;25.30
516;DHT22;244;48.508;9.052;2022-11-15T11:05:02;13.70;25.40
516;DHT22;244;48.508;9.052;2022-11-15T11:07:32;13.70;25.60
516;DHT22;244;48.508;9.052;2022-11-15T11:10:02;13.60;25.60
516;DHT22;244;48.508;9.052;2022-11-15T11:12:31;13.70;25.70
516;DHT22;244;48.508;9.052;2022-11-15T11:15:01;13.70;26.30
516;DHT22;244;48.508;9.052;2022-11-15T11:17:47;13.80;25.50
516;DHT22;244;48.508;9.052;2022-11-15T11:20:21;13.90;25.40
516;DHT22;244;48.508;9.052;2022-11-15T11:23:02;14.00;25.20
516;DHT22;244;48.508;9.052;2022-11-15T11:25:34;14.00;25.10
516;DHT22;244;48.508;9.052;2022-11-15T11:28:27;14.00;25.00
516;DHT22;244;48.508;9.052;2022-11-15T11:31:10;14.00;25.20
516;DHT22;244;48.508;9.052;2022-11-15T11:33:44;14.10;25.10
516;DHT22;244;48.508;9.052;2022-11-15T11:36:21;14.10;25.10
516;DHT22;244;48.508;9.052;2022-11-15T11:39:10;14.20;24.80
516;DHT22;244;48.508;9.052;2022-11-15T11:41:53;14.20;24.90
516;DHT22;244;48.508;9.052;2022-11-15T11:44:30;14.30;24.90
516;DHT22;244;48.508;9.052;2022-11-15T11:47:06;14.40;24.90
516;DHT22;244;48.508;9.052;2022-11-15T11:49:42;14.50;24.80
516;DHT22;244;48.508;9.052;2022-11-15T11:52:12;14.50;24.60
516;DHT22;244;48.508;9.052;2022-11-15T11:54:47;14.60;24.50
516;DHT22;244;48.508;9.052;2022-11-15T11:57:25;14.60;24.40
516;DHT22;244;48.508;9.052;2022-11-15T12:00:02;14.70;24.30
516;DHT22;244;48.508;9.052;2022-11-15T12:02:34;14.70;24.10
516;DHT22;244;48.508;9.052;2022-11-15T12:05:10;14.70;24.10
516;DHT22;244;48.508;9.052;2022-11-15T12:07:39;14.70;24.10
516;DHT22;244;48.508;9.052;2022-11-15T12:10:16;14.70;24.00
516;DHT22;244;48.508;9.052;2022-11-15T12:12:50;14.60;24.10
516;DHT22;244;48.508;9.052;2022-11-15T12:15:22;14.60;24.10
516;DHT22;244;48.508;9.052;2022-11-15T12:17:52;14.60;24.10
516;DHT22;244;48.508;9.052;2022-11-15T12:20:22;14.70;24.10
516;DHT22;244;48.508;9.052;2022-11-15T12:22:54;14.80;24.10
516;DHT22;244;48.508;9.052;2022-11-15T12:25:27;14.90;24.10
516;DHT22;244;48.508;9.052;2022-11-15T12:27:59;15.00;24.10
516;DHT22;244;48.508;9.052;2022-11-15T12:30:38;15.00;24.00
516;DHT22;244;48.508;9.052;2022-11-15T12:33:39;15.10;23.80
516;DHT22;244;48.508;9.052;2022-11-15T12:36:09;15.20;23.70
516;DHT22;244;48.508;9.052;2022-11-15T12:38:55;15.30;23.60
516;DHT22;244;48.508;9.052;2022-11-15T12:41:24;15.30;23.50
516;DHT22;244;48.508;9.052;2022-11-15T12:43:51;15.40;24.00
516;DHT22;244;48.508;9.052;2022-11-15T12:46:58;15.40;23.30
516;DHT22;244;48.508;9.052;2022-11-15T12:49:45;15.40;23.20
516;DHT22;244;48.508;9.052;2022-11-15T12:52:13;15.40;23.20
516;DHT22;244;48.508;9.052;2022-11-15T12:57:52;15.40;23.10
516;DHT22;244;48.508;9.052;2022-11-15T13:00:43;15.40;23.00
516;DHT22;244;48.508;9.052;2022-11-15T13:03:27;15.40;23.00
516;DHT22;244;48.508;9.052;2022-11-15T13:06:08;15.30;22.90
516;DHT22;244;48.508;9.052;2022-11-15T13:08:41;15.30;23.00
516;DHT22;244;48.508;9.052;2022-11-15T13:11:41;15.20;23.00
516;DHT22;244;48.508;9.052;2022-11-15T13:14:39;15.20;23.00
516;DHT22;244;48.508;9.052;2022-11-15T13:17:26;15.20;23.00
516;DHT22;244;48.508;9.052;2022-11-15T13:19:59;15.20;23.00
516;DHT22;244;48.508;9.052;2022-11-15T13:22:32;15.30;23.00
516;DHT22;244;48.508;9.052;2022-11-15T13:25:48;15.20;23.00
516;DHT22;244;48.508;9.052;2022-11-15T13:28:30;15.20;23.00
516;DHT22;244;48.508;9.052;2022-11-15T13:30:59;15.20;23.00
516;DHT22;244;48.508;9.052;2022-11-15T13:33:30;15.10;23.00
516;DHT22;244;48.508;9.052;2022-11-15T13:35:59;15.10;23.00
516;DHT22;244;48.508;9.052;2022-11-15T13:38:29;15.10;22.80
516;DHT22;244;48.508;9.052;2022-11-15T13:40:58;15.10;22.70
516;DHT22;244;48.508;9.052;2022-11-15T13:43:32;15.10;22.70
516;DHT22;244;48.508;9.052;2022-11-15T13:46:16;15.10;22.70
516;DHT22;244;48.508;9.052;2022-11-15T13:48:44;15.00;23.20
516;DHT22;244;48.508;9.052;2022-11-15T13:51:17;15.00;22.60
516;DHT22;244;48.508;9.052;2022-11-15T13:53:52;14.90;22.60
516;DHT22;244;48.508;9.052;2022-11-15T13:56:21;14.80;22.50
516;DHT22;244;48.508;9.052;2022-11-15T13:58:48;14.80;22.50
516;DHT22;244;48.508;9.052;2022-11-15T14:01:17;14.80;22.50
516;DHT22;244;48.508;9.052;2022-11-15T14:03:52;14.80;22.50
516;DHT22;244;48.508;9.052;2022-11-15T14:06:22;14.80;22.40
516;DHT22;244;48.508;9.052;2022-11-15T14:09:33;14.70;22.30
516;DHT22;244;48.508;9.052;2022-11-15T14:12:02;14.70;22.40
516;DHT22;244;48.508;9.052;2022-11-15T14:14:47;14.70;22.30
516;DHT22;244;48.508;9.052;2022-11-15T14:17:20;14.70;22.40
516;DHT22;244;48.508;9.052;2022-11-15T14:19:49;14.70;22.40
516;DHT22;244;48.508;9.052;2022-11-15T14:22:20;14.60;22.40
516;DHT22;244;48.508;9.052;2022-11-15T14:25:13;14.60;22.40
516;DHT22;244;48.508;9.052;2022-11-15T14:27:41;14.60;22.40
516;DHT22;244;48.508;9.052;2022-11-15T14:30:13;14.60;22.40
516;DHT22;244;48.508;9.052;2022-11-15T14:32:44;14.50;22.30
516;DHT22;244;48.508;9.052;2022-11-15T14:35:15;14.50;22.30
516;DHT22;244;48.508;9.052;2022-11-15T14:37:42;14.40;22.40
516;DHT22;244;48.508;9.052;2022-11-15T14:40:15;14.40;23.00
516;DHT22;244;48.508;9.052;2022-11-15T14:42:43;14.30;22.40
516;DHT22;244;48.508;9.052;2022-11-15T14:45:13;14.30;22.00
516;DHT22;244;48.508;9.052;2022-11-15T14:47:41;14.20;23.00
516;DHT22;244;48.508;9.052;2022-11-15T14:50:11;14.20;22.40
516;DHT22;244;48.508;9.052;2022-11-15T14:52:39;14.10;22.50
516;DHT22;244;48.508;9.052;2022-11-15T14:55:16;14.10;22.60
516;DHT22;244;48.508;9.052;2022-11-15T14:57:43;14.00;22.70
516;DHT22;244;48.508;9.052;2022-11-15T15:00:12;13.90;23.30
516;DHT22;244;48.508;9.052;2022-11-15T15:02:40;13.90;22.70
516;DHT22;244;48.508;9.052;2022-11-15T15:05:14;13.80;22.90
516;DHT22;244;48.508;9.052;2022-11-15T15:07:42;13.70;23.00
516;DHT22;244;48.508;9.052;2022-11-15T15:10:09;13.70;23.00
516;DHT22;244;48.508;9.052;2022-11-15T15:12:41;13.70;23.10
516;DHT22;244;48.508;9.052;2022-11-15T15:15:13;13.70;23.10
516;DHT22;244;48.508;9.052;2022-11-15T15:17:40;13.60;23.10
516;DHT22;244;48.508;9.052;2022-11-15T15:20:08;13.60;23.20
516;DHT22;244;48.508;9.052;2022-11-15T15:22:35;13.60;23.20
516;DHT22;244;48.508;9.052;2022-11-15T15:25:03;13.50;23.80
516;DHT22;244;48.508;9.052;2022-11-15T15:27:30;13.50;23.20
516;DHT22;244;48.508;9.052;2022-11-15T15:29:58;13.40;23.30
516;DHT22;244;48.508;9.052;2022-11-15T15:32:25;13.40;23.40
516;DHT22;244;48.508;9.052;2022-11-15T15:34:52;13.30;23.30
516;DHT22;244;48.508;9.052;2022-11-15T15:37:22;13.30;23.40
516;DHT22;244;48.508;9.052;2022-11-15T15:39:50;13.20;23.50
516;DHT22;244;48.508;9.052;2022-11-15T15:42:18;13.20;23.50
516;DHT22;244;48.508;9.052;2022-11-15T15:44:45;13.20;23.60
516;DHT22;244;48.508;9.052;2022-11-15T15:47:16;13.10;24.20
516;DHT22;244;48.508;9.052;2022-11-15T15:49:43;13.10;23.70
516;DHT22;244;48.508;9.052;2022-11-15T15:52:10;13.10;23.70
516;DHT22;244;48.508;9.052;2022-11-15T15:54:37;13.00;24.30
516;DHT22;244;48.508;9.052;2022-11-15T15:57:04;13.00;24.30
516;DHT22;244;48.508;9.052;2022-11-15T15:59:31;13.00;23.70
516;DHT22;244;48.508;9.052;2022-11-15T16:01:59;13.00;23.80
516;DHT22;244;48.508;9.052;2022-11-15T16:04:27;12.90;23.80
516;DHT22;244;48.508;9.052;2022-11-15T16:06:58;12.90;23.80
516;DHT22;244;48.508;9.052;2022-11-15T16:09:25;12.90;24.00
516;DHT22;244;48.508;9.052;2022-11-15T16:12:06;12.90;24.00
516;DHT22;244;48.508;9.052;2022-11-15T16:14:33;12.80;24.00
516;DHT22;244;48.508;9.052;2022-11-15T16:17:00;12.80;24.00
516;DHT22;244;48.508;9.052;2022-11-15T16:19:28;12.80;24.00
516;DHT22;244;48.508;9.052;2022-11-15T16:21:55;12.80;24.10
516;DHT22;244;48.508;9.052;2022-11-15T16:24:22;12.80;24.10
516;DHT22;244;48.508;9.052;2022-11-15T16:26:50;12.80;24.10
516;DHT22;244;48.508;9.052;2022-11-15T16:29:18;12.70;24.10
516;DHT22;244;48.508;9.052;2022-11-15T16:31:44;12.70;24.20
516;DHT22;244;48.508;9.052;2022-11-15T16:34:11;12.70;24.90
516;DHT22;244;48.508;9.052;2022-11-15T16:36:40;12.70;25.00
516;DHT22;244;48.508;9.052;2022-11-15T16:39:11;12.60;24.40
516;DHT22;244;48.508;9.052;2022-11-15T16:41:40;12.60;24.40
516;DHT22;244;48.508;9.052;2022-11-15T16:44:08;12.60;24.50
516;DHT22;244;48.508;9.052;2022-11-15T16:46:35;12.60;24.70
516;DHT22;244;48.508;9.052;2022-11-15T16:49:03;12.60;24.80
516;DHT22;244;48.508;9.052;2022-11-15T16:51:30;12.60;24.90
516;DHT22;244;48.508;9.052;2022-11-15T16:53:58;12.60;25.60
516;DHT22;244;48.508;9.052;2022-11-15T16:56:26;12.50;24.90
516;DHT22;244;48.508;9.052;2022-11-15T16:58:54;12.50;25.00
516;DHT22;244;48.508;9.052;2022-11-15T17:01:24;12.50;25.60
516;DHT22;244;48.508;9.052;2022-11-15T17:03:52;12.50;25.30
516;DHT22;244;48.508;9.052;2022-11-15T17:06:19;12.50;25.60
516;DHT22;244;48.508;9.052;2022-11-15T17:08:46;12.50;25.20
516;DHT22;244;48.508;9.052;2022-11-15T17:11:17;12.50;25.20
516;DHT22;244;48.508;9.052;2022-11-15T17:13:44;12.50;25.20
516;DHT22;244;48.508;9.052;2022-11-15T17:16:16;12.50;25.20
516;DHT22;244;48.508;9.052;2022-11-15T17:18:43;12.50;25.20